sensor_id;sensor_type;location;lat;lon;timestamp;temperature;humidity
25482;DHT22;13395;50.752;4.268;2023-07-20T00:00:49;17.40;99.90
25482;DHT22;13395;50.752;4.268;2023-07-20T00:03:19;17.40;99.90
25482;DHT22;13395;50.752;4.268;2023-07-20T00:05:49;17.50;99.90
25482;DHT22;13395;50.752;4.268;2023-07-20T00:08:15;17.40;99.90
25482;DHT22;13395;50.752;4.268;2023-07-20T00:10:41;17.50;99.90
25482;DHT22;13395;50.752;4.268;2023-07-20T00:13:07;17.40;99.90
25482;DHT22;13395;50.752;4.268;2023-07-20T00:15:33;17.40;99.90
25482;DHT22;13395;50.752;4.268;2023-07-20T00:17:59;17.40;99.90
25482;DHT22;13395;50.752;4.268;2023-07-20T00:20:24;17.50;99.90
25482;DHT22;13395;50.752;4.268;2023-07-20T00:22:51;17.40;99.90
25482;DHT22;13395;50.752;4.268;2023-07-20T00:25:17;17.50;99.90
25482;DHT22;13395;50.752;4.268;2023-07-20T00:27:43;17.50;99.90
25482;DHT22;13395;50.752;4.268;2023-07-20T00:30:09;17.50;99.90
25482;DHT22;13395;50.752;4.268;2023-07-20T00:32:35;17.60;99.90
25482;DHT22;13395;50.752;4.268;2023-07-20T00:35:00;17.50;99.90
25482;DHT22;13395;50.752;4.268;2023-07-20T00:37:26;17.50;99.90
25482;DHT22;13395;50.752;4.268;2023-07-20T00:39:53;17.40;99.90
25482;DHT22;13395;50.752;4.268;2023-07-20T00:42:19;17.40;99.90
25482;DHT22;13395;50.752;4.268;2023-07-20T00:44:44;17.30;99.90
25482;DHT22;13395;50.752;4.268;2023-07-20T00:47:10;17.30;99.90
25482;DHT22;13395;50.752;4.268;2023-07-20T00:49:36;17.40;99.90
25482;DHT22;13395;50.752;4.268;2023-07-20T00:52:03;17.40;99.90
25482;DHT22;13395;50.752;4.268;2023-07-20T00:54:31;17.40;99.90
25482;DHT22;13395;50.752;4.268;2023-07-20T00:56:57;17.40;99.90
25482;DHT22;13395;50.752;4.268;2023-07-20T00:59:23;17.50;99.90
25482;DHT22;13395;50.752;4.268;2023-07-20T01:01:49;17.50;99.90
25482;DHT22;13395;50.752;4.268;2023-07-20T01:04:15;17.50;99.90
25482;DHT22;13395;50.752;4.268;2023-07-20T01:06:48;17.60;99.90
25482;DHT22;13395;50.752;4.268;2023-07-20T01:12:22;17.50;99.90
25482;DHT22;13395;50.752;4.268;2023-07-20T01:14:48;17.50;99.90
25482;DHT22;13395;50.752;4.268;2023-07-20T01:17:14;17.60;99.90
25482;DHT22;13395;50.752;4.268;2023-07-20T01:19:40;17.60;99.90
25482;DHT22;13395;50.752;4.268;2023-07-20T01:22:32;17.50;99.90
25482;DHT22;13395;50.752;4.268;2023-07-20T01:25:25;17.60;99.90
25482;DHT22;13395;50.752;4.268;2023-07-20T01:33:41;17.50;99.90
25482;DHT22;13395;50.752;4.268;2023-07-20T01:36:07;17.60;99.90
25482;DHT22;13395;50.752;4.268;2023-07-20T01:38:34;17.60;99.90
25482;DHT22;13395;50.752;4.268;2023-07-20T01:40:59;17.70;99.90
25482;DHT22;13395;50.752;4.268;2023-07-20T01:43:25;17.80;99.90
25482;DHT22;13395;50.752;4.268;2023-07-20T01:45:51;17.70;99.90
25482;DHT22;13395;50.752;4.268;2023-07-20T01:48:16;17.70;99.90
25482;DHT22;13395;50.752;4.268;2023-07-20T01:50:42;17.70;99.90
25482;DHT22;13395;50.752;4.268;2023-07-20T01:53:08;17.60;99.90
25482;DHT22;13395;50.752;4.268;2023-07-20T01:55:34;17.60;99.90
25482;DHT22;13395;50.752;4.268;2023-07-20T01:57:59;17.60;99.90
25482;DHT22;13395;50.752;4.268;2023-07-20T02:00:26;17.70;99.90
25482;DHT22;13395;50.752;4.268;2023-07-20T02:02:51;17.70;99.90
25482;DHT22;13395;50.752;4.268;2023-07-20T02:05:17;17.70;99.90
25482;DHT22;13395;50.752;4.268;2023-07-20T02:07:43;17.70;99.90
25482;DHT22;13395;50.752;4.268;2023-07-20T02:10:09;17.70;99.90
25482;DHT22;13395;50.752;4.268;2023-07-20T02:12:35;17.70;99.90
25482;DHT22;13395;50.752;4.268;2023-07-20T02:15:01;17.70;99.90
25482;DHT22;13395;50.752;4.268;2023-07-20T02:17:27;17.70;99.90
25482;DHT22;13395;50.752;4.268;2023-07-20T02:19:53;17.70;99.90
25482;DHT22;13395;50.752;4.268;2023-07-20T02:22:20;17.70;99.90
25482;DHT22;13395;50.752;4.268;2023-07-20T02:24:46;17.70;99.90
25482;DHT22;13395;50.752;4.268;2023-07-20T02:27:11;17.70;99.90
25482;DHT22;13395;50.752;4.268;2023-07-20T02:29:37;17.70;99.90
25482;DHT22;13395;50.752;4.268;2023-07-20T02:32:03;17.80;99.90
25482;DHT22;13395;50.752;4.268;2023-07-20T02:34:29;17.80;99.90
25482;DHT22;13395;50.752;4.268;2023-07-20T02:36:55;17.70;99.90
25482;DHT22;13395;50.752;4.268;2023-07-20T02:39:27;17.70;99.90
25482;DHT22;13395;50.752;4.268;2023-07-20T02:41:52;17.60;99.90
25482;DHT22;13395;50.752;4.268;2023-07-20T02:44:18;17.60;99.90
25482;DHT22;13395;50.752;4.268;2023-07-20T02:46:43;17.60;99.90
25482;DHT22;13395;50.752;4.268;2023-07-20T02:49:09;17.50;99.90
25482;DHT22;13395;50.752;4.268;2023-07-20T02:51:35;17.60;99.90
25482;DHT22;13395;50.752;4.268;2023-07-20T02:54:00;17.40;99.90
25482;DHT22;13395;50.752;4.268;2023-07-20T02:56:26;17.40;99.90
25482;DHT22;13395;50.752;4.268;2023-07-20T02:58:52;17.40;99.90
25482;DHT22;13395;50.752;4.268;2023-07-20T03:01:18;17.30;99.90
25482;DHT22;13395;50.752;4.268;2023-07-20T03:03:43;17.20;99.90
25482;DHT22;13395;50.752;4.268;2023-07-20T03:06:13;17.10;99.90
25482;DHT22;13395;50.752;4.268;2023-07-20T03:08:40;17.10;99.90
25482;DHT22;13395;50.752;4.268;2023-07-20T03:11:06;17.10;99.90
25482;DHT22;13395;50.752;4.268;2023-07-20T03:13:32;17.20;99.90
25482;DHT22;13395;50.752;4.268;2023-07-20T03:15:57;17.10;99.90
25482;DHT22;13395;50.752;4.268;2023-07-20T03:18:23;17.20;99.90
25482;DHT22;13395;50.752;4.268;2023-07-20T03:20:49;17.10;99.90
25482;DHT22;13395;50.752;4.268;2023-07-20T03:23:14;17.20;99.90
25482;DHT22;13395;50.752;4.268;2023-07-20T03:25:41;17.20;99.90
25482;DHT22;13395;50.752;4.268;2023-07-20T03:28:06;17.10;99.90
25482;DHT22;13395;50.752;4.268;2023-07-20T03:30:33;17.10;99.90
25482;DHT22;13395;50.752;4.268;2023-07-20T03:32:58;17.10;99.90
25482;DHT22;13395;50.752;4.268;2023-07-20T03:35:24;17.10;99.90
25482;DHT22;13395;50.752;4.268;2023-07-20T03:37:49;17.10;99.90
25482;DHT22;13395;50.752;4.268;2023-07-20T03:40:15;17.10;99.90
25482;DHT22;13395;50.752;4.268;2023-07-20T03:42:41;17.10;99.90
25482;DHT22;13395;50.752;4.268;2023-07-20T03:45:07;17.10;99.90
25482;DHT22;13395;50.752;4.268;2023-07-20T03:47:33;17.10;99.90
25482;DHT22;13395;50.752;4.268;2023-07-20T03:49:59;17.10;99.90
25482;DHT22;13395;50.752;4.268;2023-07-20T03:52:24;17.10;99.90
25482;DHT22;13395;50.752;4.268;2023-07-20T03:54:50;17.20;99.90
25482;DHT22;13395;50.752;4.268;2023-07-20T03:57:17;17.20;99.90
25482;DHT22;13395;50.752;4.268;2023-07-20T03:59:45;17.20;99.90
25482;DHT22;13395;50.752;4.268;2023-07-20T04:02:11;17.30;99.90
25482;DHT22;13395;50.752;4.268;2023-07-20T04:04:37;17.20;99.90
25482;DHT22;13395;50.752;4.268;2023-07-20T04:07:02;17.20;99.90
25482;DHT22;13395;50.752;4.268;2023-07-20T04:09:28;17.10;99.90
25482;DHT22;13395;50.752;4.268;2023-07-20T04:11:54;17.10;99.90
25482;DHT22;13395;50.752;4.268;2023-07-20T04:14:20;17.10;99.90
25482;DHT22;13395;50.752;4.268;2023-07-20T04:16:48;17.20;99.90
25482;DHT22;13395;50.752;4.268;2023-07-20T04:19:14;17.20;99.90
25482;DHT22;13395;50.752;4.268;2023-07-20T04:21:40;17.30;99.90
25482;DHT22;13395;50.752;4.268;2023-07-20T04:24:06;17.30;99.90
25482;DHT22;13395;50.752;4.268;2023-07-20T04:26:32;17.30;99.90
25482;DHT22;13395;50.752;4.268;2023-07-20T04:28:58;17.30;99.90
25482;DHT22;13395;50.752;4.268;2023-07-20T04:31:25;17.30;99.90
25482;DHT22;13395;50.752;4.268;2023-07-20T04:33:50;17.40;99.90
25482;DHT22;13395;50.752;4.268;2023-07-20T04:36:16;17.40;99.90
25482;DHT22;13395;50.752;4.268;2023-07-20T04:38:45;17.50;99.90
25482;DHT22;13395;50.752;4.268;2023-07-20T04:41:11;17.60;99.90
25482;DHT22;13395;50.752;4.268;2023-07-20T04:43:44;17.60;99.90
25482;DHT22;13395;50.752;4.268;2023-07-20T04:46:10;17.70;99.90
25482;DHT22;13395;50.752;4.268;2023-07-20T04:48:36;17.70;99.90
25482;DHT22;13395;50.752;4.268;2023-07-20T04:51:02;17.70;99.90
25482;DHT22;13395;50.752;4.268;2023-07-20T04:53:27;17.70;99.90
25482;DHT22;13395;50.752;4.268;2023-07-20T04:55:53;17.70;99.90
25482;DHT22;13395;50.752;4.268;2023-07-20T04:58:20;17.70;99.90
25482;DHT22;13395;50.752;4.268;2023-07-20T05:00:46;17.70;99.90
25482;DHT22;13395;50.752;4.268;2023-07-20T05:03:11;17.70;99.90
25482;DHT22;13395;50.752;4.268;2023-07-20T05:05:37;17.80;99.90
25482;DHT22;13395;50.752;4.268;2023-07-20T05:08:04;17.80;99.90
25482;DHT22;13395;50.752;4.268;2023-07-20T05:10:29;17.80;99.90
25482;DHT22;13395;50.752;4.268;2023-07-20T05:12:55;17.70;99.90
25482;DHT22;13395;50.752;4.268;2023-07-20T05:15:20;17.80;99.90
25482;DHT22;13395;50.752;4.268;2023-07-20T05:17:46;17.90;99.90
25482;DHT22;13395;50.752;4.268;2023-07-20T05:20:14;18.00;99.90
25482;DHT22;13395;50.752;4.268;2023-07-20T05:22:40;18.10;99.90
25482;DHT22;13395;50.752;4.268;2023-07-20T05:25:09;18.20;99.90
25482;DHT22;13395;50.752;4.268;2023-07-20T05:27:39;18.20;99.90
25482;DHT22;13395;50.752;4.268;2023-07-20T05:30:05;18.20;99.90
25482;DHT22;13395;50.752;4.268;2023-07-20T05:32:32;18.30;99.90
25482;DHT22;13395;50.752;4.268;2023-07-20T05:34:58;18.40;99.90
25482;DHT22;13395;50.752;4.268;2023-07-20T05:37:24;18.40;99.90
25482;DHT22;13395;50.752;4.268;2023-07-20T05:39:49;18.50;99.90
25482;DHT22;13395;50.752;4.268;2023-07-20T05:42:15;18.50;99.90
25482;DHT22;13395;50.752;4.268;2023-07-20T05:44:41;18.60;99.90
25482;DHT22;13395;50.752;4.268;2023-07-20T05:47:07;18.50;99.90
25482;DHT22;13395;50.752;4.268;2023-07-20T05:49:34;18.50;99.90
25482;DHT22;13395;50.752;4.268;2023-07-20T05:52:00;18.50;99.90
25482;DHT22;13395;50.752;4.268;2023-07-20T05:54:26;18.50;99.90
25482;DHT22;13395;50.752;4.268;2023-07-20T05:56:52;18.50;99.90
25482;DHT22;13395;50.752;4.268;2023-07-20T05:59:18;18.50;99.90
25482;DHT22;13395;50.752;4.268;2023-07-20T06:01:45;18.60;99.90
25482;DHT22;13395;50.752;4.268;2023-07-20T06:04:11;18.60;99.90
25482;DHT22;13395;50.752;4.268;2023-07-20T06:06:36;18.60;99.90
25482;DHT22;13395;50.752;4.268;2023-07-20T06:09:02;18.60;99.90
25482;DHT22;13395;50.752;4.268;2023-07-20T06:11:33;18.60;99.90
25482;DHT22;13395;50.752;4.268;2023-07-20T06:13:58;18.60;99.90
25482;DHT22;13395;50.752;4.268;2023-07-20T06:16:24;18.70;99.90
25482;DHT22;13395;50.752;4.268;2023-07-20T06:18:49;18.80;99.90
25482;DHT22;13395;50.752;4.268;2023-07-20T06:21:15;18.90;99.90
25482;DHT22;13395;50.752;4.268;2023-07-20T06:23:41;19.00;99.90
25482;DHT22;13395;50.752;4.268;2023-07-20T06:26:07;19.10;99.90
25482;DHT22;13395;50.752;4.268;2023-07-20T06:28:33;19.10;99.90
25482;DHT22;13395;50.752;4.268;2023-07-20T06:31:00;19.10;99.90
25482;DHT22;13395;50.752;4.268;2023-07-20T06:33:25;19.10;99.90
25482;DHT22;13395;50.752;4.268;2023-07-20T06:35:51;19.00;99.90
25482;DHT22;13395;50.752;4.268;2023-07-20T06:38:18;19.10;99.90
25482;DHT22;13395;50.752;4.268;2023-07-20T06:40:45;19.00;99.90
25482;DHT22;13395;50.752;4.268;2023-07-20T06:43:11;19.00;99.90
25482;DHT22;13395;50.752;4.268;2023-07-20T06:45:36;18.90;99.90
25482;DHT22;13395;50.752;4.268;2023-07-20T06:48:02;18.90;99.90
25482;DHT22;13395;50.752;4.268;2023-07-20T06:50:28;19.00;99.90
25482;DHT22;13395;50.752;4.268;2023-07-20T06:52:54;19.00;99.90
25482;DHT22;13395;50.752;4.268;2023-07-20T06:55:20;19.00;99.90
25482;DHT22;13395;50.752;4.268;2023-07-20T06:57:45;19.20;99.90
25482;DHT22;13395;50.752;4.268;2023-07-20T07:00:11;19.30;99.90
25482;DHT22;13395;50.752;4.268;2023-07-20T07:02:37;19.50;99.90
25482;DHT22;13395;50.752;4.268;2023-07-20T07:05:03;20.10;99.90
25482;DHT22;13395;50.752;4.268;2023-07-20T07:07:29;21.10;99.90
25482;DHT22;13395;50.752;4.268;2023-07-20T07:09:55;22.10;99.90
25482;DHT22;13395;50.752;4.268;2023-07-20T07:12:20;22.60;99.90
25482;DHT22;13395;50.752;4.268;2023-07-20T07:14:46;23.10;99.90
25482;DHT22;13395;50.752;4.268;2023-07-20T07:17:11;23.50;99.90
25482;DHT22;13395;50.752;4.268;2023-07-20T07:19:37;24.60;99.90
25482;DHT22;13395;50.752;4.268;2023-07-20T07:22:04;25.90;99.90
25482;DHT22;13395;50.752;4.268;2023-07-20T07:24:29;27.70;99.90
25482;DHT22;13395;50.752;4.268;2023-07-20T07:26:59;28.70;99.90
25482;DHT22;13395;50.752;4.268;2023-07-20T07:29:25;30.10;98.70
25482;DHT22;13395;50.752;4.268;2023-07-20T07:31:51;30.80;95.40
25482;DHT22;13395;50.752;4.268;2023-07-20T07:34:17;30.20;93.20
25482;DHT22;13395;50.752;4.268;2023-07-20T07:36:43;29.60;94.00
25482;DHT22;13395;50.752;4.268;2023-07-20T07:39:08;29.20;94.30
25482;DHT22;13395;50.752;4.268;2023-07-20T07:41:35;28.70;95.00
25482;DHT22;13395;50.752;4.268;2023-07-20T07:44:00;28.00;94.90
25482;DHT22;13395;50.752;4.268;2023-07-20T07:46:26;27.20;96.30
25482;DHT22;13395;50.752;4.268;2023-07-20T07:48:51;26.60;97.80
25482;DHT22;13395;50.752;4.268;2023-07-20T07:51:17;26.20;98.20
25482;DHT22;13395;50.752;4.268;2023-07-20T07:53:43;25.90;99.00
25482;DHT22;13395;50.752;4.268;2023-07-20T07:56:09;25.70;99.90
25482;DHT22;13395;50.752;4.268;2023-07-20T07:58:34;25.30;99.90
25482;DHT22;13395;50.752;4.268;2023-07-20T08:01:00;25.00;99.90
25482;DHT22;13395;50.752;4.268;2023-07-20T08:03:26;24.80;99.90
25482;DHT22;13395;50.752;4.268;2023-07-20T08:05:54;24.50;99.90
25482;DHT22;13395;50.752;4.268;2023-07-20T08:08:21;24.00;99.90
25482;DHT22;13395;50.752;4.268;2023-07-20T08:10:46;24.20;99.90
25482;DHT22;13395;50.752;4.268;2023-07-20T08:13:13;25.20;99.90
25482;DHT22;13395;50.752;4.268;2023-07-20T08:15:39;26.40;99.90
25482;DHT22;13395;50.752;4.268;2023-07-20T08:18:05;26.60;99.60
25482;DHT22;13395;50.752;4.268;2023-07-20T08:20:31;26.50;99.10
25482;DHT22;13395;50.752;4.268;2023-07-20T08:22:57;27.10;98.30
25482;DHT22;13395;50.752;4.268;2023-07-20T08:25:25;28.60;96.00
25482;DHT22;13395;50.752;4.268;2023-07-20T08:27:51;30.10;91.70
25482;DHT22;13395;50.752;4.268;2023-07-20T08:30:16;31.90;90.00
25482;DHT22;13395;50.752;4.268;2023-07-20T08:32:42;33.00;82.60
25482;DHT22;13395;50.752;4.268;2023-07-20T08:35:08;34.20;80.70
25482;DHT22;13395;50.752;4.268;2023-07-20T08:37:34;34.40;77.90
25482;DHT22;13395;50.752;4.268;2023-07-20T08:40:00;33.90;77.30
25482;DHT22;13395;50.752;4.268;2023-07-20T08:42:27;33.00;76.10
25482;DHT22;13395;50.752;4.268;2023-07-20T08:44:53;32.40;77.60
25482;DHT22;13395;50.752;4.268;2023-07-20T08:47:20;31.00;78.70
25482;DHT22;13395;50.752;4.268;2023-07-20T08:49:48;29.90;81.30
25482;DHT22;13395;50.752;4.268;2023-07-20T08:52:14;28.90;83.00
25482;DHT22;13395;50.752;4.268;2023-07-20T08:54:40;28.10;84.10
25482;DHT22;13395;50.752;4.268;2023-07-20T08:57:06;27.80;90.20
25482;DHT22;13395;50.752;4.268;2023-07-20T08:59:34;28.70;86.30
25482;DHT22;13395;50.752;4.268;2023-07-20T09:02:02;30.30;80.50
25482;DHT22;13395;50.752;4.268;2023-07-20T09:04:29;32.20;77.50
25482;DHT22;13395;50.752;4.268;2023-07-20T09:06:57;32.80;74.30
25482;DHT22;13395;50.752;4.268;2023-07-20T09:09:22;34.20;70.60
25482;DHT22;13395;50.752;4.268;2023-07-20T09:11:49;33.40;67.90
25482;DHT22;13395;50.752;4.268;2023-07-20T09:14:15;32.70;70.70
25482;DHT22;13395;50.752;4.268;2023-07-20T09:16:53;33.10;71.00
25482;DHT22;13395;50.752;4.268;2023-07-20T09:19:20;34.10;71.60
25482;DHT22;13395;50.752;4.268;2023-07-20T09:21:51;33.90;68.50
25482;DHT22;13395;50.752;4.268;2023-07-20T09:24:20;32.90;70.00
25482;DHT22;13395;50.752;4.268;2023-07-20T09:26:47;32.60;71.90
25482;DHT22;13395;50.752;4.268;2023-07-20T09:29:14;32.40;75.30
25482;DHT22;13395;50.752;4.268;2023-07-20T09:31:42;32.10;74.20
25482;DHT22;13395;50.752;4.268;2023-07-20T09:34:23;32.20;72.30
25482;DHT22;13395;50.752;4.268;2023-07-20T09:36:48;32.00;73.20
25482;DHT22;13395;50.752;4.268;2023-07-20T09:39:14;31.50;71.10
25482;DHT22;13395;50.752;4.268;2023-07-20T09:41:40;31.20;72.30
25482;DHT22;13395;50.752;4.268;2023-07-20T09:44:10;30.80;73.80
25482;DHT22;13395;50.752;4.268;2023-07-20T09:46:48;31.20;72.40
25482;DHT22;13395;50.752;4.268;2023-07-20T09:49:14;32.10;77.10
25482;DHT22;13395;50.752;4.268;2023-07-20T09:51:40;32.40;70.80
25482;DHT22;13395;50.752;4.268;2023-07-20T09:54:07;32.60;72.20
25482;DHT22;13395;50.752;4.268;2023-07-20T09:56:34;32.30;73.80
25482;DHT22;13395;50.752;4.268;2023-07-20T09:59:00;32.50;68.30
25482;DHT22;13395;50.752;4.268;2023-07-20T10:01:26;33.40;68.60
25482;DHT22;13395;50.752;4.268;2023-07-20T10:03:54;34.30;66.60
25482;DHT22;13395;50.752;4.268;2023-07-20T10:06:24;34.60;67.50
25482;DHT22;13395;50.752;4.268;2023-07-20T10:08:53;34.70;67.00
25482;DHT22;13395;50.752;4.268;2023-07-20T10:11:22;33.90;65.70
25482;DHT22;13395;50.752;4.268;2023-07-20T10:13:51;33.40;67.70
25482;DHT22;13395;50.752;4.268;2023-07-20T10:16:30;32.50;66.30
25482;DHT22;13395;50.752;4.268;2023-07-20T10:21:25;31.80;69.50
25482;DHT22;13395;50.752;4.268;2023-07-20T10:23:51;31.40;72.20
25482;DHT22;13395;50.752;4.268;2023-07-20T10:26:17;31.00;72.10
25482;DHT22;13395;50.752;4.268;2023-07-20T10:28:42;30.70;72.00
25482;DHT22;13395;50.752;4.268;2023-07-20T10:31:10;30.30;72.90
25482;DHT22;13395;50.752;4.268;2023-07-20T10:33:37;30.30;74.30
25482;DHT22;13395;50.752;4.268;2023-07-20T10:36:04;30.80;73.80
25482;DHT22;13395;50.752;4.268;2023-07-20T10:41:23;33.20;70.50
25482;DHT22;13395;50.752;4.268;2023-07-20T10:43:58;33.80;69.20
25482;DHT22;13395;50.752;4.268;2023-07-20T10:46:43;34.40;65.80
25482;DHT22;13395;50.752;4.268;2023-07-20T10:49:13;34.50;63.80
25482;DHT22;13395;50.752;4.268;2023-07-20T10:51:41;34.10;65.20
25482;DHT22;13395;50.752;4.268;2023-07-20T10:56:42;33.40;67.70
25482;DHT22;13395;50.752;4.268;2023-07-20T11:01:47;34.00;62.70
25482;DHT22;13395;50.752;4.268;2023-07-20T11:04:16;34.50;63.90
25482;DHT22;13395;50.752;4.268;2023-07-20T11:06:46;35.00;66.50
25482;DHT22;13395;50.752;4.268;2023-07-20T11:09:13;34.30;64.70
25482;DHT22;13395;50.752;4.268;2023-07-20T11:11:43;33.80;64.50
25482;DHT22;13395;50.752;4.268;2023-07-20T11:14:11;32.50;69.50
25482;DHT22;13395;50.752;4.268;2023-07-20T11:16:46;31.70;69.30
25482;DHT22;13395;50.752;4.268;2023-07-20T11:19:20;31.10;70.40
25482;DHT22;13395;50.752;4.268;2023-07-20T11:21:50;30.30;72.40
25482;DHT22;13395;50.752;4.268;2023-07-20T11:24:15;29.90;74.40
25482;DHT22;13395;50.752;4.268;2023-07-20T11:29:11;28.80;75.90
25482;DHT22;13395;50.752;4.268;2023-07-20T11:31:38;28.50;80.50
25482;DHT22;13395;50.752;4.268;2023-07-20T11:34:04;28.40;81.10
25482;DHT22;13395;50.752;4.268;2023-07-20T11:36:30;28.10;77.70
25482;DHT22;13395;50.752;4.268;2023-07-20T11:38:57;27.80;77.90
25482;DHT22;13395;50.752;4.268;2023-07-20T11:41:24;27.60;79.40
25482;DHT22;13395;50.752;4.268;2023-07-20T11:43:51;27.60;80.80
25482;DHT22;13395;50.752;4.268;2023-07-20T11:46:16;27.90;79.20
25482;DHT22;13395;50.752;4.268;2023-07-20T11:48:42;29.60;75.90
25482;DHT22;13395;50.752;4.268;2023-07-20T11:51:16;31.60;71.40
25482;DHT22;13395;50.752;4.268;2023-07-20T11:53:44;33.40;66.60
25482;DHT22;13395;50.752;4.268;2023-07-20T11:56:11;34.50;63.30
25482;DHT22;13395;50.752;4.268;2023-07-20T11:58:44;34.70;62.20
25482;DHT22;13395;50.752;4.268;2023-07-20T12:01:11;33.70;64.30
25482;DHT22;13395;50.752;4.268;2023-07-20T12:03:37;34.20;65.40
25482;DHT22;13395;50.752;4.268;2023-07-20T12:06:13;33.90;63.00
25482;DHT22;13395;50.752;4.268;2023-07-20T12:08:42;34.00;65.90
25482;DHT22;13395;50.752;4.268;2023-07-20T12:11:08;32.70;65.80
25482;DHT22;13395;50.752;4.268;2023-07-20T12:13:44;31.80;67.40
25482;DHT22;13395;50.752;4.268;2023-07-20T12:16:14;32.40;68.00
25482;DHT22;13395;50.752;4.268;2023-07-20T12:18:44;33.60;68.20
25482;DHT22;13395;50.752;4.268;2023-07-20T12:21:10;33.70;62.20
25482;DHT22;13395;50.752;4.268;2023-07-20T12:23:38;32.90;62.60
25482;DHT22;13395;50.752;4.268;2023-07-20T12:26:08;31.70;66.20
25482;DHT22;13395;50.752;4.268;2023-07-20T12:28:45;31.20;70.20
25482;DHT22;13395;50.752;4.268;2023-07-20T12:31:10;30.50;66.40
25482;DHT22;13395;50.752;4.268;2023-07-20T12:33:38;30.10;68.90
25482;DHT22;13395;50.752;4.268;2023-07-20T12:36:04;29.90;69.50
25482;DHT22;13395;50.752;4.268;2023-07-20T12:38:30;29.60;72.20
25482;DHT22;13395;50.752;4.268;2023-07-20T12:40:57;29.20;71.40
25482;DHT22;13395;50.752;4.268;2023-07-20T12:43:24;29.00;73.80
25482;DHT22;13395;50.752;4.268;2023-07-20T12:45:49;28.70;74.80
25482;DHT22;13395;50.752;4.268;2023-07-20T12:48:15;28.40;73.60
25482;DHT22;13395;50.752;4.268;2023-07-20T12:50:41;28.20;77.70
25482;DHT22;13395;50.752;4.268;2023-07-20T12:53:06;28.00;79.70
25482;DHT22;13395;50.752;4.268;2023-07-20T12:55:32;27.70;81.30
25482;DHT22;13395;50.752;4.268;2023-07-20T12:57:58;27.70;79.60
25482;DHT22;13395;50.752;4.268;2023-07-20T13:00:23;27.70;81.60
25482;DHT22;13395;50.752;4.268;2023-07-20T13:02:50;27.40;80.50
25482;DHT22;13395;50.752;4.268;2023-07-20T13:05:16;27.40;84.50
25482;DHT22;13395;50.752;4.268;2023-07-20T13:07:42;27.40;81.00
25482;DHT22;13395;50.752;4.268;2023-07-20T13:10:08;27.50;78.60
25482;DHT22;13395;50.752;4.268;2023-07-20T13:12:36;27.50;78.30
25482;DHT22;13395;50.752;4.268;2023-07-20T13:15:06;27.20;78.80
25482;DHT22;13395;50.752;4.268;2023-07-20T13:17:36;27.00;80.40
25482;DHT22;13395;50.752;4.268;2023-07-20T13:20:03;27.00;81.00
25482;DHT22;13395;50.752;4.268;2023-07-20T13:22:32;26.90;82.80
25482;DHT22;13395;50.752;4.268;2023-07-20T13:24:58;26.90;81.10
25482;DHT22;13395;50.752;4.268;2023-07-20T13:27:23;26.70;81.00
25482;DHT22;13395;50.752;4.268;2023-07-20T13:29:51;26.50;81.60
25482;DHT22;13395;50.752;4.268;2023-07-20T13:32:17;26.40;83.90
25482;DHT22;13395;50.752;4.268;2023-07-20T13:34:43;26.10;83.90
25482;DHT22;13395;50.752;4.268;2023-07-20T13:37:10;26.00;82.40
25482;DHT22;13395;50.752;4.268;2023-07-20T13:39:36;25.80;84.20
25482;DHT22;13395;50.752;4.268;2023-07-20T13:42:02;25.80;86.20
25482;DHT22;13395;50.752;4.268;2023-07-20T13:44:33;25.90;86.60
25482;DHT22;13395;50.752;4.268;2023-07-20T13:47:00;25.90;85.60
25482;DHT22;13395;50.752;4.268;2023-07-20T13:49:26;25.70;86.60
25482;DHT22;13395;50.752;4.268;2023-07-20T13:51:52;25.70;85.10
25482;DHT22;13395;50.752;4.268;2023-07-20T13:54:17;25.50;84.40
25482;DHT22;13395;50.752;4.268;2023-07-20T13:56:43;25.20;85.60
25482;DHT22;13395;50.752;4.268;2023-07-20T13:59:08;25.20;86.80
25482;DHT22;13395;50.752;4.268;2023-07-20T14:01:34;25.30;87.30
25482;DHT22;13395;50.752;4.268;2023-07-20T14:04:01;25.50;86.00
25482;DHT22;13395;50.752;4.268;2023-07-20T14:06:30;25.90;85.30
25482;DHT22;13395;50.752;4.268;2023-07-20T14:08:56;26.30;84.70
25482;DHT22;13395;50.752;4.268;2023-07-20T14:11:22;26.50;82.40
25482;DHT22;13395;50.752;4.268;2023-07-20T14:13:48;26.40;84.40
25482;DHT22;13395;50.752;4.268;2023-07-20T14:16:14;26.50;83.70
25482;DHT22;13395;50.752;4.268;2023-07-20T14:18:39;26.70;82.30
25482;DHT22;13395;50.752;4.268;2023-07-20T14:21:05;26.80;83.20
25482;DHT22;13395;50.752;4.268;2023-07-20T14:23:32;26.80;81.30
25482;DHT22;13395;50.752;4.268;2023-07-20T14:25:58;26.50;80.90
25482;DHT22;13395;50.752;4.268;2023-07-20T14:28:24;26.20;81.70
25482;DHT22;13395;50.752;4.268;2023-07-20T14:30:50;26.20;81.70
25482;DHT22;13395;50.752;4.268;2023-07-20T14:33:16;26.20;83.90
25482;DHT22;13395;50.752;4.268;2023-07-20T14:35:41;26.10;85.20
25482;DHT22;13395;50.752;4.268;2023-07-20T14:38:07;26.20;84.20
25482;DHT22;13395;50.752;4.268;2023-07-20T14:40:32;26.10;85.20
25482;DHT22;13395;50.752;4.268;2023-07-20T14:42:58;25.90;86.10
25482;DHT22;13395;50.752;4.268;2023-07-20T14:45:27;25.90;86.10
25482;DHT22;13395;50.752;4.268;2023-07-20T14:47:52;25.80;84.20
25482;DHT22;13395;50.752;4.268;2023-07-20T14:50:20;25.90;86.10
25482;DHT22;13395;50.752;4.268;2023-07-20T14:52:46;25.90;86.90
25482;DHT22;13395;50.752;4.268;2023-07-20T14:55:12;25.90;83.50
25482;DHT22;13395;50.752;4.268;2023-07-20T14:57:38;25.70;85.30
25482;DHT22;13395;50.752;4.268;2023-07-20T15:00:04;25.50;85.00
25482;DHT22;13395;50.752;4.268;2023-07-20T15:02:39;25.00;86.30
25482;DHT22;13395;50.752;4.268;2023-07-20T15:05:09;25.00;87.20
25482;DHT22;13395;50.752;4.268;2023-07-20T15:07:35;24.90;86.70
25482;DHT22;13395;50.752;4.268;2023-07-20T15:10:02;24.90;87.30
25482;DHT22;13395;50.752;4.268;2023-07-20T15:12:27;25.00;87.20
25482;DHT22;13395;50.752;4.268;2023-07-20T15:15:06;25.00;88.40
25482;DHT22;13395;50.752;4.268;2023-07-20T15:17:32;25.00;88.70
25482;DHT22;13395;50.752;4.268;2023-07-20T15:19:58;24.90;87.80
25482;DHT22;13395;50.752;4.268;2023-07-20T15:22:25;24.60;90.10
25482;DHT22;13395;50.752;4.268;2023-07-20T15:24:50;24.50;89.90
25482;DHT22;13395;50.752;4.268;2023-07-20T15:27:16;24.40;90.70
25482;DHT22;13395;50.752;4.268;2023-07-20T15:29:42;24.40;92.10
25482;DHT22;13395;50.752;4.268;2023-07-20T15:32:07;24.30;93.50
25482;DHT22;13395;50.752;4.268;2023-07-20T15:34:34;24.30;94.70
25482;DHT22;13395;50.752;4.268;2023-07-20T15:36:59;24.30;95.40
25482;DHT22;13395;50.752;4.268;2023-07-20T15:39:25;24.30;94.50
25482;DHT22;13395;50.752;4.268;2023-07-20T15:41:51;23.80;94.40
25482;DHT22;13395;50.752;4.268;2023-07-20T15:44:17;23.30;95.40
25482;DHT22;13395;50.752;4.268;2023-07-20T15:46:47;22.70;97.60
25482;DHT22;13395;50.752;4.268;2023-07-20T15:49:14;22.20;99.90